Terminal Aerodrome Forecast
Issued by NWS

Home | Current Version | Previous Version | Text Only | Print | Product List | Glossary On
Versions: 1 2 3 4 5 6 7 8 9 10 11 12
617
FTUS42 TJSJ 222340
TAFJBQ
TAF
TJBQ 222340Z 2300/2324 10005KT P6SM FEW035 FEW080
     FM230300 12003KT P6SM SKC
     FM231450 06012KT P6SM VCSH SCT025 SCT040
     FM232300 09008KT P6SM SCT030
      AMD NOT SKED 2302/2311=

USA.gov is the U.S. government's official web portal to all federal, state and local government web resources and services.